Time;durP1;ratioP1;P1;durP2;ratioP2;P2;SDS_P1;SDS_P2;PMS_P1;PMS_P2;Temp;Humidity;BMP_temperature;BMP_pressure;BME280_temperature;BME280_humidity;BME280_pressure;Samples;Min_cycle;Max_cycle;Signal;HPM_P1;HPM_P2
2022/12/22 03:27:40;;;;;;;;;;;;;;;;;;6216637;23;19950;-78
2022/12/22 03:30:06;;;;;;;;;;;;;;;;;;6243087;23;19912;-78
2022/12/22 03:32:31;;;;;;;;;;;;;;;;;;6215663;23;19950;-78
2022/12/22 03:34:57;;;;;;;;;;;;;;;;;;6243264;23;19946;-79
2022/12/22 03:37:23;;;;;;;;;;;;;;;;;;6243022;23;19985;-79
2022/12/22 03:39:49;;;;;;;;;;;;;;;;;;6242879;23;19926;-78
2022/12/22 03:47:43;;;;;;;;;;;;;;;;;;6243128;23;20627;-79
2022/12/22 03:50:09;;;;;;;;;;;;;;;;;;6216223;23;19918;-79
2022/12/22 03:52:35;;;;;;;;;;;;;;;;;;6217625;23;20348;-79
2022/12/22 03:55:00;;;;;;;;;;;;;;;;;;6246741;23;19911;-81
2022/12/22 03:57:26;;;;;;;;;;;;;;;;;;6242332;23;20291;-77
2022/12/22 03:59:52;;;;;;;;;;;;;;;;;;6242675;23;19927;-78
2022/12/22 04:02:19;;;;;;;;;;;;;;;;;;6215864;23;20037;-77
2022/12/22 04:04:44;;;;;;;;;;;;;;;;;;6242098;23;19947;-78
2022/12/22 04:07:10;;;;;;;;;;;;;;;;;;6242894;23;19924;-78
2022/12/22 04:12:52;;;;;;;;;;;;;;;;;;6213551;23;19911;-78
2022/12/22 04:15:06;;;;;;;;;;;;;;;;;;6241037;23;19965;-76
2022/12/22 04:17:32;;;;;;;;;;;;;;;;;;6241927;23;19916;-78
2022/12/22 04:19:58;;;;;;;;;;;;;;;;;;6240024;23;20006;-79
2022/12/22 04:22:24;;;;;;;;;;;;;;;;;;6241004;23;20324;-77
2022/12/22 04:24:49;;;;;;;;;;;;;;;;;;6241580;23;19912;-78
2022/12/22 04:27:16;;;;;;;;;;;;;;;;;;6242756;23;19918;-78
2022/12/22 04:29:42;;;;;;;;;;;;;;;;;;6215612;23;19916;-78
2022/12/22 04:32:07;;;;;;;;;;;;;;;;;;6241802;23;19922;-78
2022/12/22 04:34:33;;;;;;;;;;;;;;;;;;6242949;23;20018;-77
2022/12/22 04:36:59;;;;;;;;;;;;;;;;;;6241854;23;19946;-78
2022/12/22 04:39:24;;;;;;;;;;;;;;;;;;6212891;23;19920;-78
2022/12/22 04:41:50;;;;;;;;;;;;;;;;;;6242128;23;19957;-77
2022/12/22 04:44:15;;;;;;;;;;;;;;;;;;6242105;23;19912;-76
2022/12/22 04:46:41;;;;;;;;;;;;;;;;;;6241798;23;19911;-77
2022/12/22 04:49:07;;;;;;;;;;;;;;;;;;6241775;23;19912;-77
2022/12/22 04:51:33;;;;;;;;;;;;;;;;;;6242063;23;19923;-78
2022/12/22 04:53:58;;;;;;;;;;;;;;;;;;6242718;23;20402;-79
2022/12/22 04:56:24;;;;;;;;;;;;;;;;;;6242520;23;19962;-78
2022/12/22 04:58:50;;;;;;;;;;;;;;;;;;6242363;23;20423;-79
2022/12/22 05:01:15;;;;;;;;;;;;;;;;;;6241784;23;20264;-78
2022/12/22 05:03:41;;;;;;;;;;;;;;;;;;6242679;23;19980;-78
2022/12/22 05:06:07;;;;;;;;;;;;;;;;;;6242147;23;19923;-79
2022/12/22 05:08:32;;;;;;;;;;;;;;;;;;6242004;23;19915;-78
2022/12/22 05:10:58;;;;;;;;;;;;;;;;;;6216057;23;19911;-78
2022/12/22 05:13:23;;;;;;;;;;;;;;;;;;6216029;23;19965;-78
2022/12/22 05:15:49;;;;;;;;;;;;;;;;;;6242817;23;19911;-77
2022/12/22 05:18:15;;;;;;;;;;;;;;;;;;6243357;23;19918;-77
2022/12/22 05:20:40;;;;;;;;;;;;;;;;;;6242952;23;20010;-77
2022/12/22 05:23:06;;;;;;;;;;;;;;;;;;6253468;23;19934;-77
2022/12/22 05:25:32;;;;;;;;;;;;;;;;;;6261239;23;19911;-77
2022/12/22 05:27:58;;;;;;;;;;;;;;;;;;6256556;23;19912;-78
2022/12/22 05:30:23;;;;;;;;;;;;;;;;;;6258106;23;19911;-78
2022/12/22 05:32:49;;;;;;;;;;;;;;;;;;6201454;23;19915;-78
2022/12/22 05:35:15;;;;;;;;;;;;;;;;;;6239389;23;19908;-75
2022/12/22 05:37:40;;;;;;;;;;;;;;;;;;6240205;23;19911;-74
2022/12/22 05:40:06;;;;;;;;;;;;;;;;;;6213503;23;20352;-73
2022/12/22 05:42:35;;;;;;;;;;;;;;;;;;6240336;23;19912;-74
2022/12/22 05:45:00;;;;;;;;;;;;;;;;;;6241051;23;20086;-74
2022/12/22 05:47:26;;;;;;;;;;;;;;;;;;6239889;23;20369;-74
2022/12/22 05:49:51;;;;;;;;;;;;;;;;;;6239877;23;19946;-74
2022/12/22 05:52:17;;;;;;;;;;;;;;;;;;6241387;23;19934;-74
2022/12/22 05:54:43;;;;;;;;;;;;;;;;;;6240841;23;19919;-74
2022/12/22 05:57:08;;;;;;;;;;;;;;;;;;6213922;23;19911;-74
2022/12/22 05:59:34;;;;;;;;;;;;;;;;;;6240507;23;19919;-75
2022/12/22 06:01:59;;;;;;;;;;;;;;;;;;6214151;23;19991;-73
2022/12/22 06:04:25;;;;;;;;;;;;;;;;;;6213016;23;19911;-75
2022/12/22 06:06:51;;;;;;;;;;;;;;;;;;6238842;23;20383;-75
2022/12/22 06:09:16;;;;;;;;;;;;;;;;;;6213252;23;19911;-74
2022/12/22 06:11:42;;;;;;;;;;;;;;;;;;6239802;23;19919;-74
2022/12/22 06:14:08;;;;;;;;;;;;;;;;;;6239246;23;20328;-75
2022/12/22 06:16:33;;;;;;;;;;;;;;;;;;6239958;23;19918;-73
2022/12/22 06:18:59;;;;;;;;;;;;;;;;;;6240062;23;19911;-74
2022/12/22 06:21:25;;;;;;;;;;;;;;;;;;6240042;23;19950;-77
2022/12/22 06:23:53;;;;;;;;;;;;;;;;;;6240449;23;20500;-74
2022/12/22 06:26:19;;;;;;;;;;;;;;;;;;6239814;23;19934;-74
2022/12/22 06:28:44;;;;;;;;;;;;;;;;;;6212502;23;19911;-74
2022/12/22 06:31:10;;;;;;;;;;;;;;;;;;6241003;23;19990;-75
2022/12/22 06:33:36;;;;;;;;;;;;;;;;;;6240054;23;20319;-75
2022/12/22 06:36:02;;;;;;;;;;;;;;;;;;6240573;23;20256;-76
2022/12/22 06:38:28;;;;;;;;;;;;;;;;;;6240180;23;19943;-76
2022/12/22 06:40:54;;;;;;;;;;;;;;;;;;6239919;23;19926;-77
2022/12/22 06:43:20;;;;;;;;;;;;;;;;;;6241133;23;20264;-79
2022/12/22 06:45:45;;;;;;;;;;;;;;;;;;6239720;23;19942;-76
2022/12/22 06:48:11;;;;;;;;;;;;;;;;;;6213182;23;19957;-74
2022/12/22 06:50:37;;;;;;;;;;;;;;;;;;6212699;23;19918;-75
2022/12/22 06:53:21;;;;;;;;;;;;;;;;;;6213382;23;19994;-75
2022/12/22 06:55:46;;;;;;;;;;;;;;;;;;6241711;23;19943;-73
2022/12/22 06:58:12;;;;;;;;;;;;;;;;;;6241406;23;19947;-75
2022/12/22 07:00:38;;;;;;;;;;;;;;;;;;6241304;23;20375;-75
2022/12/22 07:03:03;;;;;;;;;;;;;;;;;;6241734;23;19912;-75
2022/12/22 07:05:30;;;;;;;;;;;;;;;;;;6241519;23;19975;-74
2022/12/22 07:07:56;;;;;;;;;;;;;;;;;;6215041;23;19981;-74
2022/12/22 07:10:56;;;;;;;;;;;;;;;;;;6214670;23;19912;-75
2022/12/22 07:13:18;;;;;;;;;;;;;;;;;;6240337;23;19956;-76
2022/12/22 07:15:44;;;;;;;;;;;;;;;;;;6189372;23;19912;-75
2022/12/22 07:18:10;;;;;;;;;;;;;;;;;;6216361;23;20360;-77
2022/12/22 07:20:35;;;;;;;;;;;;;;;;;;6241794;23;19919;-77
2022/12/22 07:23:03;;;;;;;;;;;;;;;;;;6215104;23;19926;-77
2022/12/22 07:25:29;;;;;;;;;;;;;;;;;;6241958;23;19912;-77
2022/12/22 07:27:54;;;;;;;;;;;;;;;;;;6242017;23;19915;-76
2022/12/22 07:30:20;;;;;;;;;;;;;;;;;;6242537;23;19911;-75
2022/12/22 07:32:45;;;;;;;;;;;;;;;;;;6241182;23;19938;-75
2022/12/22 07:35:11;;;;;;;;;;;;;;;;;;6189609;23;20331;-75
2022/12/22 07:37:36;;;;;;;;;;;;;;;;;;6241692;23;19919;-76
2022/12/22 07:40:02;;;;;;;;;;;;;;;;;;6241649;23;19926;-76
2022/12/22 07:42:43;;;;;;;;;;;;;;;;;;6242530;23;19919;-77
2022/12/22 07:45:09;;;;;;;;;;;;;;;;;;6241143;23;19912;-76
2022/12/22 07:47:34;;;;;;;;;;;;;;;;;;6241652;23;20342;-77
2022/12/22 07:52:44;;;;;;;;;;;;;;;;;;6214690;23;19998;-76
2022/12/22 07:55:10;;;;;;;;;;;;;;;;;;6189684;23;19915;-77
2022/12/22 07:57:36;;;;;;;;;;;;;;;;;;6214446;23;20404;-76
2022/12/22 08:00:01;;;;;;;;;;;;;;;;;;6214072;23;19920;-77
2022/12/22 08:02:37;;;;;;;;;;;;;;;;;;6240349;23;19920;-75
2022/12/22 08:05:03;;;;;;;;;;;;;;;;;;6214552;23;19919;-76
2022/12/22 08:07:28;;;;;;;;;;;;;;;;;;6241415;23;19930;-75
2022/12/22 08:09:54;;;;;;;;;;;;;;;;;;6214735;23;19911;-74
2022/12/22 08:12:20;;;;;;;;;;;;;;;;;;6244398;23;20300;-76
2022/12/22 08:14:47;;;;;;;;;;;;;;;;;;6214307;23;19939;-73
2022/12/22 08:17:12;;;;;;;;;;;;;;;;;;6241566;23;19982;-74
2022/12/22 08:19:38;;;;;;;;;;;;;;;;;;6240459;23;20363;-74
2022/12/22 08:22:03;;;;;;;;;;;;;;;;;;6241267;23;19947;-74
2022/12/22 08:24:29;;;;;;;;;;;;;;;;;;6240219;23;20426;-75
2022/12/22 08:26:55;;;;;;;;;;;;;;;;;;6240891;23;19965;-76
2022/12/22 08:29:20;;;;;;;;;;;;;;;;;;6241221;23;19915;-77
2022/12/22 08:31:46;;;;;;;;;;;;;;;;;;6240819;23;19919;-76
2022/12/22 08:34:11;;;;;;;;;;;;;;;;;;6241023;23;20229;-76
2022/12/22 08:36:38;;;;;;;;;;;;;;;;;;6241161;23;19974;-78
2022/12/22 08:39:04;;;;;;;;;;;;;;;;;;6189636;23;19911;-75
2022/12/22 08:44:14;;;;;;;;;;;;;;;;;;6214163;23;20003;-78
2022/12/22 08:46:40;;;;;;;;;;;;;;;;;;6214087;23;19943;-76
2022/12/22 08:49:05;;;;;;;;;;;;;;;;;;6188711;23;19911;-74
2022/12/22 08:51:31;;;;;;;;;;;;;;;;;;6240915;23;20002;-75
2022/12/22 08:53:57;;;;;;;;;;;;;;;;;;6240560;23;19957;-77
2022/12/22 08:56:22;;;;;;;;;;;;;;;;;;6240971;23;19915;-78
2022/12/22 08:58:48;;;;;;;;;;;;;;;;;;6240469;23;19918;-74
2022/12/22 09:01:14;;;;;;;;;;;;;;;;;;6240712;23;19926;-74
2022/12/22 09:03:39;;;;;;;;;;;;;;;;;;6188157;23;19911;-75
2022/12/22 09:06:05;;;;;;;;;;;;;;;;;;6240589;23;19966;-78
2022/12/22 09:08:31;;;;;;;;;;;;;;;;;;6241110;23;19915;-75
2022/12/22 09:10:57;;;;;;;;;;;;;;;;;;6240905;23;20264;-76
2022/12/22 09:13:22;;;;;;;;;;;;;;;;;;6241052;23;20602;-75
2022/12/22 09:15:48;;;;;;;;;;;;;;;;;;6214128;23;19975;-74
2022/12/22 09:18:14;;;;;;;;;;;;;;;;;;6215402;23;19911;-74
2022/12/22 09:20:40;;;;;;;;;;;;;;;;;;6240621;23;19920;-76
2022/12/22 09:23:05;;;;;;;;;;;;;;;;;;6213623;23;19911;-75
2022/12/22 09:25:31;;;;;;;;;;;;;;;;;;6214336;23;19916;-75
2022/12/22 09:27:57;;;;;;;;;;;;;;;;;;6240075;23;20242;-75
2022/12/22 09:30:23;;;;;;;;;;;;;;;;;;6240455;23;20007;-74
2022/12/22 09:32:48;;;;;;;;;;;;;;;;;;6213643;23;20015;-74
2022/12/22 09:35:14;;;;;;;;;;;;;;;;;;6213629;23;20355;-74
2022/12/22 09:37:40;;;;;;;;;;;;;;;;;;6240307;23;19994;-73
2022/12/22 09:40:05;;;;;;;;;;;;;;;;;;6240170;23;19942;-73
2022/12/22 09:42:31;;;;;;;;;;;;;;;;;;6240294;23;20272;-73
2022/12/22 09:44:57;;;;;;;;;;;;;;;;;;6239791;23;20206;-74
2022/12/22 09:47:22;;;;;;;;;;;;;;;;;;6240213;23;19919;-74
2022/12/22 09:49:48;;;;;;;;;;;;;;;;;;6239762;23;19911;-73
2022/12/22 09:52:14;;;;;;;;;;;;;;;;;;6240252;23;19915;-74
2022/12/22 09:54:39;;;;;;;;;;;;;;;;;;6240127;23;20261;-75
2022/12/22 09:57:05;;;;;;;;;;;;;;;;;;6240463;23;19965;-74
2022/12/22 09:59:31;;;;;;;;;;;;;;;;;;6239953;23;19927;-74
2022/12/22 10:01:57;;;;;;;;;;;;;;;;;;6240075;23;19998;-74
2022/12/22 10:04:22;;;;;;;;;;;;;;;;;;6240173;23;19947;-73
2022/12/22 10:06:48;;;;;;;;;;;;;;;;;;6239437;23;19989;-73
2022/12/22 10:09:14;;;;;;;;;;;;;;;;;;6239748;23;19919;-77
2022/12/22 10:11:39;;;;;;;;;;;;;;;;;;6213598;23;19911;-78
2022/12/22 10:14:05;;;;;;;;;;;;;;;;;;6240950;23;19923;-77
2022/12/22 10:16:30;;;;;;;;;;;;;;;;;;6241589;23;19939;-79
2022/12/22 10:18:56;;;;;;;;;;;;;;;;;;6213692;23;19994;-78
2022/12/22 10:21:22;;;;;;;;;;;;;;;;;;6242231;23;19926;-79
2022/12/22 10:23:48;;;;;;;;;;;;;;;;;;6240170;23;19911;-75
2022/12/22 10:26:13;;;;;;;;;;;;;;;;;;6240052;23;19919;-76
2022/12/22 10:28:39;;;;;;;;;;;;;;;;;;6240949;23;19911;-74
2022/12/22 10:31:04;;;;;;;;;;;;;;;;;;6242208;23;19919;-75
2022/12/22 10:33:30;;;;;;;;;;;;;;;;;;6242304;23;19911;-74
2022/12/22 10:35:56;;;;;;;;;;;;;;;;;;6215152;23;19912;-75
2022/12/22 10:38:21;;;;;;;;;;;;;;;;;;6242273;23;19919;-74
2022/12/22 10:40:47;;;;;;;;;;;;;;;;;;6241676;23;19924;-75
2022/12/22 10:43:13;;;;;;;;;;;;;;;;;;6241867;23;19915;-76
2022/12/22 10:45:38;;;;;;;;;;;;;;;;;;6242151;23;20268;-75
2022/12/22 10:48:05;;;;;;;;;;;;;;;;;;6242407;23;19923;-78
2022/12/22 10:50:31;;;;;;;;;;;;;;;;;;6215594;23;19938;-77
2022/12/22 10:52:57;;;;;;;;;;;;;;;;;;6215428;23;20480;-74
2022/12/22 10:55:24;;;;;;;;;;;;;;;;;;6217369;23;20015;-76
2022/12/22 10:57:50;;;;;;;;;;;;;;;;;;6243190;23;19950;-76
2022/12/22 11:00:15;;;;;;;;;;;;;;;;;;6191915;23;19927;-75
2022/12/22 11:02:41;;;;;;;;;;;;;;;;;;6242493;23;19919;-77
2022/12/22 11:05:07;;;;;;;;;;;;;;;;;;6243189;23;19998;-77
2022/12/22 11:07:33;;;;;;;;;;;;;;;;;;6215249;23;19927;-79
2022/12/22 11:09:58;;;;;;;;;;;;;;;;;;6242551;23;20356;-77
2022/12/22 11:12:24;;;;;;;;;;;;;;;;;;6243602;23;19911;-75
2022/12/22 11:14:49;;;;;;;;;;;;;;;;;;6216308;23;19911;-77
2022/12/22 11:17:15;;;;;;;;;;;;;;;;;;6259118;23;19964;-76
2022/12/22 11:19:41;;;;;;;;;;;;;;;;;;6234633;23;19920;-78
2022/12/22 11:22:07;;;;;;;;;;;;;;;;;;6260193;23;19915;-78
2022/12/22 11:24:32;;;;;;;;;;;;;;;;;;6261537;23;19895;-79
2022/12/22 11:26:58;;;;;;;;;;;;;;;;;;6249176;23;19912;-79
2022/12/22 11:29:24;;;;;;;;;;;;;;;;;;6190546;23;19911;-76
2022/12/22 11:31:49;;;;;;;;;;;;;;;;;;6242455;23;20364;-77
2022/12/22 11:34:15;;;;;;;;;;;;;;;;;;6242297;23;19958;-75
2022/12/22 11:36:41;;;;;;;;;;;;;;;;;;6215079;23;19918;-73
2022/12/22 11:39:06;;;;;;;;;;;;;;;;;;6241839;23;20529;-76
2022/12/22 11:41:32;;;;;;;;;;;;;;;;;;6241041;23;19962;-77
2022/12/22 11:43:58;;;;;;;;;;;;;;;;;;6215079;23;19935;-75
2022/12/22 11:46:23;;;;;;;;;;;;;;;;;;6241609;23;20321;-77
2022/12/22 11:48:49;;;;;;;;;;;;;;;;;;6242243;23;19919;-77
2022/12/22 11:51:15;;;;;;;;;;;;;;;;;;6242298;23;19912;-79
2022/12/22 11:53:40;;;;;;;;;;;;;;;;;;6216058;23;19942;-78
2022/12/22 11:56:06;;;;;;;;;;;;;;;;;;6214577;23;19919;-77
2022/12/22 11:58:32;;;;;;;;;;;;;;;;;;6242557;23;19911;-77
2022/12/22 12:00:59;;;;;;;;;;;;;;;;;;6214918;23;20034;-76
2022/12/22 12:03:24;;;;;;;;;;;;;;;;;;6242057;23;19908;-76
2022/12/22 12:05:50;;;;;;;;;;;;;;;;;;6241359;23;19916;-77
2022/12/22 12:08:16;;;;;;;;;;;;;;;;;;6242159;23;19912;-77
2022/12/22 12:10:42;;;;;;;;;;;;;;;;;;6241738;23;19919;-80
2022/12/22 12:13:07;;;;;;;;;;;;;;;;;;6242021;23;19911;-75
2022/12/22 12:15:33;;;;;;;;;;;;;;;;;;6242385;23;19974;-76
2022/12/22 12:17:59;;;;;;;;;;;;;;;;;;6241527;23;19912;-76
2022/12/22 12:20:24;;;;;;;;;;;;;;;;;;6239112;23;19919;-78
2022/12/22 12:22:50;;;;;;;;;;;;;;;;;;6214875;23;19973;-77
2022/12/22 12:25:16;;;;;;;;;;;;;;;;;;6212125;23;20310;-77
2022/12/22 12:27:41;;;;;;;;;;;;;;;;;;6240847;23;19918;-76
2022/12/22 12:30:07;;;;;;;;;;;;;;;;;;6215007;23;20264;-80
2022/12/22 12:32:33;;;;;;;;;;;;;;;;;;6243332;23;19915;-80
2022/12/22 12:35:01;;;;;;;;;;;;;;;;;;6217669;23;19919;-78
2022/12/22 12:37:28;;;;;;;;;;;;;;;;;;6190796;23;20319;-79
2022/12/22 12:39:53;;;;;;;;;;;;;;;;;;6242500;23;19923;-74
2022/12/22 12:42:19;;;;;;;;;;;;;;;;;;6241365;23;19939;-76
2022/12/22 12:44:44;;;;;;;;;;;;;;;;;;6240046;23;20468;-75
2022/12/22 12:47:10;;;;;;;;;;;;;;;;;;6243637;23;19912;-77
2022/12/22 12:49:36;;;;;;;;;;;;;;;;;;6216813;23;19911;-76
2022/12/22 12:52:01;;;;;;;;;;;;;;;;;;6238057;23;19912;-75
2022/12/22 12:54:27;;;;;;;;;;;;;;;;;;6212703;23;19962;-74
2022/12/22 12:56:52;;;;;;;;;;;;;;;;;;6238906;23;19912;-74
2022/12/22 12:59:18;;;;;;;;;;;;;;;;;;6212132;23;19911;-75
2022/12/22 13:01:44;;;;;;;;;;;;;;;;;;6237880;23;19912;-74
2022/12/22 13:04:09;;;;;;;;;;;;;;;;;;6212379;23;19911;-76
2022/12/22 13:06:35;;;;;;;;;;;;;;;;;;6213015;23;19919;-76
2022/12/22 13:09:00;;;;;;;;;;;;;;;;;;6212616;23;19951;-76
2022/12/22 13:11:26;;;;;;;;;;;;;;;;;;6239696;23;19976;-76
2022/12/22 13:13:52;;;;;;;;;;;;;;;;;;6213017;23;19918;-76
2022/12/22 13:16:17;;;;;;;;;;;;;;;;;;6239730;23;20643;-76
2022/12/22 13:18:43;;;;;;;;;;;;;;;;;;6213242;23;19916;-75
2022/12/22 13:21:09;;;;;;;;;;;;;;;;;;6211828;23;20002;-75
2022/12/22 13:23:34;;;;;;;;;;;;;;;;;;6240263;23;19953;-79
2022/12/22 13:26:00;;;;;;;;;;;;;;;;;;6212803;23;19947;-78
2022/12/22 13:28:26;;;;;;;;;;;;;;;;;;6213549;23;19912;-78
2022/12/22 13:30:51;;;;;;;;;;;;;;;;;;6239457;23;19923;-77
2022/12/22 13:33:17;;;;;;;;;;;;;;;;;;6213271;23;19912;-79
2022/12/22 13:35:43;;;;;;;;;;;;;;;;;;6239283;23;19918;-79
2022/12/22 13:38:08;;;;;;;;;;;;;;;;;;6186863;23;20323;-78
2022/12/22 13:40:34;;;;;;;;;;;;;;;;;;6238166;23;19946;-78
2022/12/22 13:42:59;;;;;;;;;;;;;;;;;;6187867;23;20383;-78
2022/12/22 13:45:25;;;;;;;;;;;;;;;;;;6237930;23;19912;-79
2022/12/22 13:47:51;;;;;;;;;;;;;;;;;;6213240;23;19907;-79
2022/12/22 13:50:16;;;;;;;;;;;;;;;;;;6239489;23;20291;-79
2022/12/22 13:52:42;;;;;;;;;;;;;;;;;;6240139;23;19912;-79
2022/12/22 13:55:11;;;;;;;;;;;;;;;;;;6239768;23;19915;-79
2022/12/22 13:57:36;;;;;;;;;;;;;;;;;;6239815;23;19974;-78
2022/12/22 14:00:02;;;;;;;;;;;;;;;;;;6187603;23;20348;-79
2022/12/22 14:02:35;;;;;;;;;;;;;;;;;;6239155;23;20267;-78
2022/12/22 14:05:01;;;;;;;;;;;;;;;;;;6212317;23;19990;-78
2022/12/22 14:07:26;;;;;;;;;;;;;;;;;;6239520;23;19998;-78
2022/12/22 14:09:52;;;;;;;;;;;;;;;;;;6239029;23;19950;-77
2022/12/22 14:12:18;;;;;;;;;;;;;;;;;;6240036;23;19912;-77
2022/12/22 14:14:43;;;;;;;;;;;;;;;;;;6237828;23;19915;-74
2022/12/22 14:17:09;;;;;;;;;;;;;;;;;;6238902;23;19912;-75
2022/12/22 14:19:35;;;;;;;;;;;;;;;;;;6239123;23;19993;-76
2022/12/22 14:22:00;;;;;;;;;;;;;;;;;;6211767;23;19912;-74
2022/12/22 14:24:26;;;;;;;;;;;;;;;;;;6239179;23;19917;-75
2022/12/22 14:26:52;;;;;;;;;;;;;;;;;;6238551;23;20620;-75
2022/12/22 14:29:18;;;;;;;;;;;;;;;;;;6239511;23;19912;-75
2022/12/22 14:31:43;;;;;;;;;;;;;;;;;;6238816;23;19915;-75
2022/12/22 14:34:09;;;;;;;;;;;;;;;;;;6238720;23;19918;-75
2022/12/22 14:36:35;;;;;;;;;;;;;;;;;;6238959;23;19918;-75
2022/12/22 14:39:01;;;;;;;;;;;;;;;;;;6238906;23;20574;-77
2022/12/22 14:41:42;;;;;;;;;;;;;;;;;;6213566;23;19958;-80
2022/12/22 14:44:08;;;;;;;;;;;;;;;;;;6189305;23;19912;-80
2022/12/22 14:46:34;;;;;;;;;;;;;;;;;;6240370;23;19923;-80
2022/12/22 14:48:59;;;;;;;;;;;;;;;;;;6241297;23;20610;-81
2022/12/22 14:51:25;;;;;;;;;;;;;;;;;;6215417;23;19962;-81
2022/12/22 14:53:51;;;;;;;;;;;;;;;;;;6240636;23;19915;-78
2022/12/22 14:56:17;;;;;;;;;;;;;;;;;;6241862;23;19916;-80
2022/12/22 14:58:43;;;;;;;;;;;;;;;;;;6238127;23;19912;-78
2022/12/22 15:01:09;;;;;;;;;;;;;;;;;;6239529;23;20231;-78
2022/12/22 15:03:36;;;;;;;;;;;;;;;;;;6212933;23;19918;-81
2022/12/22 15:06:03;;;;;;;;;;;;;;;;;;6240206;23;19919;-80
2022/12/22 15:08:32;;;;;;;;;;;;;;;;;;6214839;23;20371;-80
2022/12/22 15:10:57;;;;;;;;;;;;;;;;;;6214581;23;19915;-82
2022/12/22 15:13:23;;;;;;;;;;;;;;;;;;6241139;23;19918;-81
2022/12/22 15:15:48;;;;;;;;;;;;;;;;;;6240758;23;19946;-78
2022/12/22 15:18:14;;;;;;;;;;;;;;;;;;6189889;23;19919;-79
2022/12/22 15:20:40;;;;;;;;;;;;;;;;;;6241296;23;19920;-79
2022/12/22 15:23:05;;;;;;;;;;;;;;;;;;6241967;23;19939;-81
2022/12/22 15:25:31;;;;;;;;;;;;;;;;;;6243491;23;20110;-80
2022/12/22 15:27:56;;;;;;;;;;;;;;;;;;6214665;23;19965;-82
2022/12/22 15:30:22;;;;;;;;;;;;;;;;;;6214891;23;19911;-77
2022/12/22 15:32:48;;;;;;;;;;;;;;;;;;6239861;23;19912;-77
2022/12/22 15:35:14;;;;;;;;;;;;;;;;;;6240122;23;19946;-79
2022/12/22 15:37:39;;;;;;;;;;;;;;;;;;6239834;23;19911;-79
2022/12/22 15:40:08;;;;;;;;;;;;;;;;;;6242183;23;19930;-81
2022/12/22 15:42:34;;;;;;;;;;;;;;;;;;6240788;23;19983;-79
2022/12/22 15:44:59;;;;;;;;;;;;;;;;;;6214407;23;19927;-80
2022/12/22 15:47:25;;;;;;;;;;;;;;;;;;6214974;23;20001;-81
2022/12/22 15:49:51;;;;;;;;;;;;;;;;;;6241543;23;19918;-79
2022/12/22 15:52:16;;;;;;;;;;;;;;;;;;6240830;23;19999;-80
2022/12/22 15:54:42;;;;;;;;;;;;;;;;;;6240934;23;19911;-80
2022/12/22 15:57:08;;;;;;;;;;;;;;;;;;6241522;23;19990;-79
2022/12/22 15:59:34;;;;;;;;;;;;;;;;;;6242004;23;19927;-79
2022/12/22 16:01:59;;;;;;;;;;;;;;;;;;6215104;23;19911;-79
2022/12/22 16:04:27;;;;;;;;;;;;;;;;;;6190453;23;19918;-79
2022/12/22 16:06:52;;;;;;;;;;;;;;;;;;6212261;23;19920;-78
2022/12/22 16:09:19;;;;;;;;;;;;;;;;;;6241155;23;19934;-77
2022/12/22 16:11:45;;;;;;;;;;;;;;;;;;6242576;23;19918;-78
2022/12/22 16:14:11;;;;;;;;;;;;;;;;;;6217402;23;19933;-77
2022/12/22 16:16:38;;;;;;;;;;;;;;;;;;6242647;23;19912;-78
2022/12/22 16:19:04;;;;;;;;;;;;;;;;;;6242495;23;19970;-78
2022/12/22 16:21:30;;;;;;;;;;;;;;;;;;6217226;23;19920;-79
2022/12/22 16:23:56;;;;;;;;;;;;;;;;;;6216273;23;19918;-79
2022/12/22 16:26:22;;;;;;;;;;;;;;;;;;6242465;23;19912;-78
2022/12/22 16:28:47;;;;;;;;;;;;;;;;;;6242596;23;19973;-79
2022/12/22 16:31:13;;;;;;;;;;;;;;;;;;6242627;23;19965;-77
2022/12/22 16:33:39;;;;;;;;;;;;;;;;;;6240967;23;19911;-77
2022/12/22 16:36:04;;;;;;;;;;;;;;;;;;6213318;23;19923;-78
2022/12/22 16:38:30;;;;;;;;;;;;;;;;;;6215060;23;19911;-79
2022/12/22 16:40:56;;;;;;;;;;;;;;;;;;6242235;23;20349;-78
2022/12/22 16:43:21;;;;;;;;;;;;;;;;;;6244204;23;19974;-79
2022/12/22 16:45:48;;;;;;;;;;;;;;;;;;6243253;23;20351;-79
2022/12/22 16:48:13;;;;;;;;;;;;;;;;;;6216712;23;19959;-79
2022/12/22 16:50:41;;;;;;;;;;;;;;;;;;6243832;23;19994;-81
2022/12/22 16:53:06;;;;;;;;;;;;;;;;;;6243160;23;19912;-81
2022/12/22 16:55:34;;;;;;;;;;;;;;;;;;6244561;23;19918;-80
2022/12/22 16:58:01;;;;;;;;;;;;;;;;;;6244625;23;19998;-81
2022/12/22 17:00:27;;;;;;;;;;;;;;;;;;6193469;23;19958;-82
2022/12/22 17:02:53;;;;;;;;;;;;;;;;;;6246888;23;20563;-81
2022/12/22 17:05:20;;;;;;;;;;;;;;;;;;6193429;23;19912;-80
2022/12/22 17:07:47;;;;;;;;;;;;;;;;;;6218969;23;19969;-82
2022/12/22 17:10:12;;;;;;;;;;;;;;;;;;6222305;23;19935;-80
2022/12/22 17:12:38;;;;;;;;;;;;;;;;;;6245240;23;20007;-79
2022/12/22 17:15:07;;;;;;;;;;;;;;;;;;6243632;23;19916;-81
2022/12/22 17:17:32;;;;;;;;;;;;;;;;;;6248976;23;19912;-80
2022/12/22 17:19:58;;;;;;;;;;;;;;;;;;6232782;23;19954;-78
2022/12/22 17:22:24;;;;;;;;;;;;;;;;;;6229916;23;20122;-78
2022/12/22 17:24:49;;;;;;;;;;;;;;;;;;6256752;23;19912;-79
2022/12/22 17:27:15;;;;;;;;;;;;;;;;;;6252473;23;19912;-77
2022/12/22 17:29:41;;;;;;;;;;;;;;;;;;6241718;23;19908;-78
2022/12/22 17:32:07;;;;;;;;;;;;;;;;;;6241040;23;19919;-76
2022/12/22 17:34:32;;;;;;;;;;;;;;;;;;6214185;23;19912;-76
2022/12/22 17:36:58;;;;;;;;;;;;;;;;;;6214215;23;20006;-75
2022/12/22 17:39:24;;;;;;;;;;;;;;;;;;6240957;23;19915;-77
2022/12/22 17:41:50;;;;;;;;;;;;;;;;;;6214695;23;19923;-78
2022/12/22 17:44:16;;;;;;;;;;;;;;;;;;6240524;23;19912;-79
2022/12/22 17:46:41;;;;;;;;;;;;;;;;;;6240703;23;19916;-78
2022/12/22 17:49:07;;;;;;;;;;;;;;;;;;6240466;23;19911;-78
2022/12/22 17:51:35;;;;;;;;;;;;;;;;;;6213262;23;19912;-79
2022/12/22 17:54:00;;;;;;;;;;;;;;;;;;6213925;23;19912;-81
2022/12/22 17:56:26;;;;;;;;;;;;;;;;;;6240708;23;19918;-78
2022/12/22 17:58:55;;;;;;;;;;;;;;;;;;6214066;23;19918;-77
2022/12/22 18:01:21;;;;;;;;;;;;;;;;;;6240784;23;19924;-78
2022/12/22 18:03:46;;;;;;;;;;;;;;;;;;6188494;23;19920;-77
2022/12/22 18:06:12;;;;;;;;;;;;;;;;;;6239813;23;19956;-78
2022/12/22 18:08:38;;;;;;;;;;;;;;;;;;6213695;23;19918;-78
2022/12/22 18:11:04;;;;;;;;;;;;;;;;;;6240475;23;19922;-78
2022/12/22 18:13:30;;;;;;;;;;;;;;;;;;6240738;23;19923;-79
2022/12/22 18:15:55;;;;;;;;;;;;;;;;;;6240566;23;19962;-78
2022/12/22 18:18:21;;;;;;;;;;;;;;;;;;6240188;23;20384;-77
2022/12/22 18:20:47;;;;;;;;;;;;;;;;;;6240470;23;19920;-77
2022/12/22 18:23:12;;;;;;;;;;;;;;;;;;6240973;23;19907;-79
2022/12/22 18:25:38;;;;;;;;;;;;;;;;;;6240523;23;19915;-78
2022/12/22 18:28:04;;;;;;;;;;;;;;;;;;6213887;23;19943;-77
2022/12/22 18:30:32;;;;;;;;;;;;;;;;;;6240656;23;19911;-79
2022/12/22 18:32:58;;;;;;;;;;;;;;;;;;6240742;23;19919;-78
2022/12/22 18:35:24;;;;;;;;;;;;;;;;;;6240463;23;19916;-77
2022/12/22 18:37:53;;;;;;;;;;;;;;;;;;6213380;23;19912;-78
2022/12/22 18:40:18;;;;;;;;;;;;;;;;;;6240506;23;19943;-78
2022/12/22 18:42:44;;;;;;;;;;;;;;;;;;6239461;23;20677;-80
2022/12/22 18:45:10;;;;;;;;;;;;;;;;;;6238807;23;19912;-77
2022/12/22 18:47:36;;;;;;;;;;;;;;;;;;6240174;23;19931;-77
2022/12/22 18:50:04;;;;;;;;;;;;;;;;;;6239812;23;20304;-77
2022/12/22 18:52:29;;;;;;;;;;;;;;;;;;6240538;23;19908;-78
2022/12/22 18:54:56;;;;;;;;;;;;;;;;;;6240422;23;20451;-80
2022/12/22 18:57:21;;;;;;;;;;;;;;;;;;6190170;23;19998;-79
2022/12/22 18:59:47;;;;;;;;;;;;;;;;;;6242771;23;19938;-82
2022/12/22 19:02:13;;;;;;;;;;;;;;;;;;6212418;23;19965;-78
2022/12/22 19:04:39;;;;;;;;;;;;;;;;;;6241204;23;20502;-78
2022/12/22 19:07:05;;;;;;;;;;;;;;;;;;6240880;23;19920;-79
2022/12/22 19:09:31;;;;;;;;;;;;;;;;;;6240826;23;19964;-80
2022/12/22 19:11:57;;;;;;;;;;;;;;;;;;6242737;23;19911;-81
2022/12/22 19:14:23;;;;;;;;;;;;;;;;;;6241583;23;19989;-81
2022/12/22 19:16:53;;;;;;;;;;;;;;;;;;6241520;23;20284;-79
2022/12/22 19:19:18;;;;;;;;;;;;;;;;;;6241082;23;20328;-77
2022/12/22 19:21:44;;;;;;;;;;;;;;;;;;6240819;23;19920;-78
2022/12/22 19:24:10;;;;;;;;;;;;;;;;;;6241955;23;19912;-82
2022/12/22 19:26:35;;;;;;;;;;;;;;;;;;6215270;23;20349;-80
2022/12/22 19:29:01;;;;;;;;;;;;;;;;;;6214292;23;20435;-80
2022/12/22 19:31:27;;;;;;;;;;;;;;;;;;6240639;23;19911;-77
2022/12/22 19:33:53;;;;;;;;;;;;;;;;;;6214390;23;20309;-78
2022/12/22 19:36:18;;;;;;;;;;;;;;;;;;6214693;23;19918;-82
2022/12/22 19:38:44;;;;;;;;;;;;;;;;;;6243041;23;19934;-80
2022/12/22 19:41:10;;;;;;;;;;;;;;;;;;6240327;23;19923;-82
2022/12/22 19:43:36;;;;;;;;;;;;;;;;;;6241164;23;19917;-80
2022/12/22 19:46:01;;;;;;;;;;;;;;;;;;6241836;23;19918;-80
2022/12/22 19:48:27;;;;;;;;;;;;;;;;;;6242154;23;19939;-81
2022/12/22 19:50:53;;;;;;;;;;;;;;;;;;6214355;23;19912;-80
2022/12/22 19:53:19;;;;;;;;;;;;;;;;;;6188531;23;20549;-80
2022/12/22 19:55:44;;;;;;;;;;;;;;;;;;6242394;23;20364;-81
2022/12/22 19:58:10;;;;;;;;;;;;;;;;;;6242074;23;19990;-78
2022/12/22 20:00:37;;;;;;;;;;;;;;;;;;6240472;23;19951;-78
2022/12/22 20:03:02;;;;;;;;;;;;;;;;;;6239818;23;19912;-79
2022/12/22 20:05:29;;;;;;;;;;;;;;;;;;6190062;23;19911;-81
2022/12/22 20:07:54;;;;;;;;;;;;;;;;;;6213939;23;19973;-80
2022/12/22 20:10:20;;;;;;;;;;;;;;;;;;6240178;23;19915;-78
2022/12/22 20:12:46;;;;;;;;;;;;;;;;;;6241178;23;19918;-80
2022/12/22 20:15:11;;;;;;;;;;;;;;;;;;6241890;23;19911;-79
2022/12/22 20:17:37;;;;;;;;;;;;;;;;;;6242320;23;20264;-81